createdAt,value
2017-08-18T17:24:12.575Z,8.83
2017-08-18T17:26:47.392Z,12.63
2017-08-18T17:29:21.803Z,11.77
2017-08-18T17:32:03.384Z,8.33
2017-08-18T17:34:39.996Z,8.40
2017-08-18T17:37:16.238Z,11.77
2017-08-18T17:39:50.977Z,10.73
2017-08-18T17:42:27.873Z,11.60
2017-08-18T17:45:02.550Z,14.35
2017-08-18T17:47:38.906Z,8.07
2017-08-18T17:50:16.167Z,11.53
2017-08-18T17:52:51.841Z,10.90
2017-08-18T17:55:25.881Z,20.75
2017-08-18T17:58:01.218Z,27.35
2017-08-18T18:00:35.118Z,15.52
2017-08-18T18:03:09.450Z,32.42
2017-08-18T18:05:43.263Z,14.57
2017-08-18T18:08:17.124Z,10.55
2017-08-18T18:10:50.962Z,12.30
2017-08-18T18:13:24.765Z,19.55
2017-08-18T18:15:59.463Z,13.68
2017-08-18T18:18:35.447Z,11.50
2017-08-18T18:21:11.550Z,9.88
2017-08-18T18:23:45.464Z,10.95
2017-08-18T18:26:22.198Z,10.52
2017-08-18T18:28:56.817Z,13.23
2017-08-18T18:31:32.760Z,14.98
2017-08-18T18:34:07.724Z,22.92
2017-08-18T18:36:41.684Z,15.15
2017-08-18T18:39:15.406Z,26.83
2017-08-18T18:41:50.651Z,12.82
2017-08-18T18:44:24.202Z,14.05
2017-08-18T18:46:57.897Z,9.52
2017-08-18T18:49:35.358Z,16.05
2017-08-18T18:52:09.408Z,10.38
2017-08-18T18:54:46.235Z,14.85
2017-08-18T18:57:19.999Z,17.00
2017-08-18T18:59:57.933Z,12.43
2017-08-18T19:02:31.526Z,15.18
2017-08-18T19:05:07.792Z,18.50
2017-08-18T19:07:41.459Z,12.52
2017-08-18T19:10:15.135Z,6.62
2017-08-18T19:12:49.787Z,17.70
2017-08-18T19:15:25.608Z,5.43
2017-08-18T19:17:59.487Z,4.25
2017-08-18T19:20:35.129Z,7.53
2017-08-18T19:23:13.312Z,9.88
2017-08-18T19:25:48.799Z,13.90
2017-08-18T19:28:22.776Z,3.37
2017-08-18T19:30:57.428Z,6.00
2017-08-18T19:33:31.808Z,3.92
2017-08-18T19:36:06.578Z,2.90
2017-08-18T19:38:42.406Z,5.10
2017-08-18T19:41:17.628Z,6.55
2017-08-18T19:43:52.434Z,8.15
2017-08-18T19:46:26.152Z,2.47
2017-08-18T19:49:01.071Z,1.67
2017-08-18T19:51:34.679Z,3.87
2017-08-18T19:54:11.345Z,10.07
2017-08-18T19:56:47.514Z,1.92
2017-08-18T19:59:22.426Z,2.10
2017-08-18T20:01:58.061Z,2.70
2017-08-18T20:04:31.962Z,1.60
2017-08-18T20:07:07.048Z,3.90
2017-08-18T20:09:40.905Z,2.92
2017-08-18T20:12:14.728Z,3.03
2017-08-18T20:14:51.024Z,1.98
2017-08-18T20:17:24.988Z,2.35
2017-08-18T20:19:58.730Z,4.28
2017-08-18T20:22:32.340Z,1.65
2017-08-18T20:25:06.034Z,3.70
2017-08-18T20:27:39.596Z,2.50
2017-08-18T20:30:13.166Z,4.70
2017-08-18T20:32:46.915Z,4.50
2017-08-18T20:35:20.595Z,2.60
2017-08-18T20:37:54.187Z,2.80
2017-08-18T20:40:27.845Z,5.18
2017-08-18T20:43:02.443Z,2.08
2017-08-18T20:45:37.338Z,1.08
2017-08-18T20:48:11.789Z,0.85
2017-08-18T20:50:46.167Z,1.65
2017-08-18T20:53:19.827Z,1.80
2017-08-18T20:55:54.370Z,4.10
2017-08-18T20:58:28.039Z,7.20
2017-08-18T21:01:01.812Z,1.23
2017-08-18T21:03:36.319Z,1.50
2017-08-18T21:06:10.034Z,1.20
2017-08-18T21:08:44.601Z,1.10
2017-08-18T21:11:18.179Z,1.87
2017-08-18T21:13:51.768Z,1.40
2017-08-18T21:16:26.050Z,2.10
2017-08-18T21:18:59.667Z,1.92
2017-08-18T21:21:33.292Z,1.12
2017-08-18T21:24:07.788Z,2.15
2017-08-18T21:26:41.656Z,3.05
2017-08-18T21:29:15.211Z,1.95
2017-08-18T21:31:49.702Z,4.53
2017-08-18T21:34:23.320Z,2.50
2017-08-18T21:36:56.890Z,2.95
2017-08-18T21:39:31.415Z,1.67
2017-08-18T21:42:05.958Z,4.00
2017-08-18T21:44:39.600Z,1.77
2017-08-18T21:47:13.339Z,1.05
2017-08-18T21:49:47.031Z,3.62
2017-08-18T21:52:20.562Z,2.03
2017-08-18T21:54:54.154Z,2.10
2017-08-18T21:57:27.860Z,1.58
2017-08-18T22:00:02.181Z,0.82
2017-08-18T22:02:35.793Z,3.22
2017-08-18T22:05:09.351Z,1.42
2017-08-18T22:07:43.078Z,1.12
2017-08-18T22:10:16.858Z,3.40
2017-08-18T22:12:50.501Z,1.23
2017-08-18T22:15:24.109Z,1.85
2017-08-18T22:17:57.642Z,1.75
2017-08-18T22:20:31.236Z,2.08
2017-08-18T22:23:04.845Z,6.62
2017-08-18T22:25:38.603Z,4.32
2017-08-18T22:28:12.395Z,3.10
2017-08-18T22:30:46.903Z,2.75
2017-08-18T22:33:20.463Z,1.17
2017-08-18T22:35:54.025Z,2.25
2017-08-18T22:38:28.330Z,0.90
2017-08-18T22:41:02.056Z,1.12
2017-08-18T22:43:35.746Z,1.25
2017-08-18T22:46:09.346Z,0.70
2017-08-18T22:48:43.163Z,1.87
2017-08-18T22:51:16.719Z,3.55
2017-08-18T22:53:50.422Z,0.95
2017-08-18T22:56:23.974Z,2.47
2017-08-18T22:58:57.678Z,3.40
2017-08-18T23:01:32.178Z,1.17
2017-08-18T23:04:06.074Z,3.37
2017-08-18T23:06:40.162Z,1.67
2017-08-18T23:09:13.954Z,1.87
2017-08-18T23:11:47.775Z,1.73
2017-08-18T23:14:21.380Z,1.60
2017-08-18T23:16:55.210Z,1.12
2017-08-18T23:19:30.299Z,0.90
2017-08-18T23:22:04.003Z,0.80
2017-08-18T23:24:38.732Z,1.62
2017-08-18T23:27:12.503Z,2.97
2017-08-18T23:29:46.043Z,2.95
2017-08-18T23:32:19.613Z,1.00
2017-08-18T23:34:53.255Z,2.15
2017-08-18T23:37:27.879Z,0.80
2017-08-18T23:40:02.186Z,1.95
2017-08-18T23:42:35.774Z,2.17
2017-08-18T23:45:09.585Z,5.85
2017-08-18T23:47:45.783Z,1.35
2017-08-18T23:50:20.734Z,1.25
2017-08-18T23:52:54.535Z,0.95
2017-08-18T23:55:30.196Z,1.65
2017-08-18T23:58:04.859Z,1.17
